LAKE MOULTRIE OBSERVATION SITE SC US NWS current weather conditions

sailwx.info

Wind from 016 at 13 knots gusting 20

Air temperature 1.0° C

Last reported at 2020-Jan-21 16:30 UTC.
Time now 2020-Jan-21 17:39 UTC

Location: N 33°15' W 080°02'.
View on Google Maps.

See reports from other nearby stations

  
Tides and Currents Weather Stations Pressure Air Temp Water Temp Dewpoint Dewpoint Depression Visibility Wind Speed Wind Dir Waves Ship Positions
date/time (UTC)wind fromknots sea level pressurealtimeterstation pressurevisibilityair tempwater tempwave heightnotes
2020-Jan-21 16:30 016 13 gusting 20 1.0
2020-Jan-21 15:30 006 13 gusting 17 -0.0
2020-Jan-21 14:30 028 14 gusting 17 -0.6
2020-Jan-21 13:30 031 14 gusting 17 -0.8
2020-Jan-21 12:30 037 16 gusting 21 -0.5
2020-Jan-21 11:30 035 14 gusting 18 -0.0
2020-Jan-21 10:30 036 14 gusting 17 0.6
2020-Jan-21 09:30 038 10 gusting 13 0.9
2020-Jan-21 08:30 050 13 gusting 16 1.1
2020-Jan-21 07:30 051 13 gusting 15 1.7
2020-Jan-21 06:30 054 11 gusting 14 2.6
2020-Jan-21 05:30 052 10 gusting 13 2.8
2020-Jan-21 04:30 057 10 gusting 13 3.2
2020-Jan-21 03:30 054 10 gusting 12 3.7
2020-Jan-21 02:30 040 12 gusting 15 4.0
2020-Jan-21 01:30 036 13 gusting 15 4.4
2020-Jan-21 00:30 039 12 gusting 14 4.5
2020-Jan-20 23:30 017 12 gusting 14 4.8
2020-Jan-20 22:30 001 7 gusting 13 5.1
2020-Jan-20 21:30 004 10 gusting 14 5.6
2020-Jan-20 20:30 003 6 gusting 11 5.0
2020-Jan-20 19:30 011 7 gusting 11 4.5
2020-Jan-20 18:30 015 6 gusting 10 3.9
2020-Jan-20 17:30 359 9 gusting 11 3.3
2020-Jan-20 16:30 038 5 gusting 11 2.7
2020-Jan-20 15:30 032 10 gusting 15 2.2
2020-Jan-20 14:30 035 13 gusting 18 1.7
2020-Jan-20 13:30 041 15 gusting 17 1.2
2020-Jan-20 12:30 020 15 gusting 18 1.7
2020-Jan-20 11:30 032 13 gusting 20 2.2
2020-Jan-20 10:30 034 14 gusting 19 2.9
2020-Jan-20 09:30 035 17 gusting 19 3.4
2020-Jan-20 08:30 043 14 gusting 16 4.5
2020-Jan-20 07:30 033 13 gusting 18 6.1
2020-Jan-20 06:30 019 17 gusting 21 7.2
2020-Jan-20 05:30 021 17 gusting 20 8.5
2020-Jan-20 04:30 332 12 gusting 15 9.6
2020-Jan-20 03:30 302 12 gusting 16 10.0
2020-Jan-20 02:30 294 9 gusting 11 10.0
2020-Jan-20 01:30 278 8 gusting 9 9.9
2020-Jan-20 00:30 267 10 gusting 12 10.6
2020-Jan-19 23:30 269 9 gusting 11 11.4
2020-Jan-19 22:30 265 10 gusting 12 12.7
2020-Jan-19 21:30 286 12 gusting 14 13.9
2020-Jan-19 20:30 283 9 gusting 12 14.4
2020-Jan-19 19:30 248 10 gusting 13 14.4
2020-Jan-19 18:30 262 14 gusting 16 15.0
2020-Jan-19 17:30 235 8 gusting 12 14.4